Search for airport 
image banner adimage banner adimage banner ad
image banner ad

KLRJ - Le Mars Muni

Located in Le Mars, United States

ICAO - LRJ, IATA - LRJ

Data provided by Airmate  

General information

Coordinates: N42°46'41" W96°11'37"
Elevation is 1197 feet MSL.
Magnetic variation is 03° East
View others Airports in Iowa

Operational data

Special qualification required
Current time UTC:
Current local time:
Weather
METAR: KLRJ 181715Z AUTO 11009KT 10SM CLR 30/08 A2988 RMK AO2
View NOTAMs / SUP AIP / TFR affecting this airport [VIEW]
Communications frequencies: [VIEW]

Runways:

RWY identifierQFULength (ft)Width (ft)SurfaceLDA (ft)
18188°460575CONC
36460575CONC

Airport contact information

Address: Le Mars United States

Satellite view of KLRJ